createdAt,value
2023-01-30T00:03:06.152Z,88.22
2023-01-30T00:07:59.015Z,88.15
2023-01-30T00:12:51.901Z,88.30
2023-01-30T00:17:44.830Z,88.40
2023-01-30T00:22:37.718Z,88.40
2023-01-30T00:27:31.399Z,88.42
2023-01-30T00:32:26.623Z,88.31
2023-01-30T00:37:20.048Z,88.37
2023-01-30T00:42:30.475Z,88.42
2023-01-30T00:47:23.977Z,88.36
2023-01-30T00:52:19.517Z,88.50
2023-01-30T00:57:12.293Z,88.44
2023-01-30T01:02:05.122Z,88.73
2023-01-30T01:06:59.393Z,88.66
2023-01-30T01:11:52.153Z,88.92
2023-01-30T01:16:45.361Z,88.88
2023-01-30T01:21:39.650Z,88.73
2023-01-30T01:26:32.592Z,88.88
2023-01-30T01:31:26.055Z,89.07
2023-01-30T01:36:49.623Z,88.85
2023-01-30T01:41:35.486Z,88.70
2023-01-30T01:46:46.649Z,88.80
2023-01-30T01:51:53.298Z,88.83
2023-01-30T01:56:50.193Z,88.94
2023-01-30T02:01:44.501Z,88.83
2023-01-30T02:06:40.474Z,88.95
2023-01-30T02:11:52.275Z,88.43
2023-01-30T02:16:47.870Z,88.53
2023-01-30T02:22:15.614Z,88.36
2023-01-30T02:27:28.342Z,88.34
2023-01-30T02:32:51.889Z,88.01
2023-01-30T02:38:14.191Z,88.26
2023-01-30T02:43:16.389Z,87.90
2023-01-30T02:48:15.666Z,87.98
2023-01-30T02:53:09.831Z,87.55
2023-01-30T02:58:05.068Z,87.32
2023-01-30T03:03:49.355Z,87.21
2023-01-30T03:09:11.383Z,87.30
2023-01-30T03:14:13.073Z,87.25
2023-01-30T03:19:08.316Z,87.16
2023-01-30T03:24:01.240Z,86.96
2023-01-30T03:28:55.009Z,87.42
2023-01-30T03:33:48.043Z,87.51
2023-01-30T03:38:41.517Z,87.63
2023-01-30T03:43:34.749Z,88.02
2023-01-30T03:48:29.018Z,87.96
2023-01-30T03:53:22.301Z,88.29
2023-01-30T03:58:15.188Z,88.40
2023-01-30T04:03:08.130Z,88.45
2023-01-30T04:08:01.467Z,88.31
2023-01-30T04:12:54.556Z,88.38
2023-01-30T04:17:49.228Z,88.17
2023-01-30T04:23:14.773Z,87.87
2023-01-30T04:28:07.857Z,87.90
2023-01-30T04:33:03.401Z,87.82
2023-01-30T04:37:56.719Z,87.43
2023-01-30T04:42:49.560Z,87.59
2023-01-30T04:48:08.830Z,87.68
2023-01-30T04:53:02.485Z,87.62
2023-01-30T04:57:55.682Z,87.16
2023-01-30T05:02:49.966Z,86.97
2023-01-30T05:07:46.763Z,86.65
2023-01-30T05:12:39.592Z,86.44
2023-01-30T05:17:32.472Z,86.22
2023-01-30T05:22:25.388Z,86.07
2023-01-30T05:27:18.308Z,85.67
2023-01-30T05:32:15.707Z,85.67
2023-01-30T05:37:08.425Z,85.55
2023-01-30T05:42:01.240Z,85.31
2023-01-30T05:46:54.087Z,85.09
2023-01-30T05:51:47.271Z,84.90
2023-01-30T05:56:40.156Z,85.04
2023-01-30T06:01:33.070Z,84.74
2023-01-30T06:06:27.106Z,84.46
2023-01-30T06:11:20.049Z,84.42
2023-01-30T06:16:14.987Z,84.51
2023-01-30T06:21:08.473Z,84.37
2023-01-30T06:26:04.603Z,84.56
2023-01-30T06:30:58.348Z,84.45
2023-01-30T06:35:53.312Z,84.18
2023-01-30T06:40:47.808Z,84.35
2023-01-30T06:45:40.599Z,83.94
2023-01-30T06:50:34.143Z,83.81
2023-01-30T06:55:28.582Z,83.82
2023-01-30T07:00:21.884Z,83.84
2023-01-30T07:05:14.765Z,83.67
2023-01-30T07:10:09.567Z,83.46
2023-01-30T07:15:02.376Z,83.31
2023-01-30T07:19:55.231Z,83.45
2023-01-30T07:24:48.037Z,83.19
2023-01-30T07:29:42.089Z,83.08
2023-01-30T07:34:35.330Z,82.84
2023-01-30T07:39:28.152Z,82.76
2023-01-30T07:44:21.103Z,82.61
2023-01-30T07:49:13.936Z,82.65
2023-01-30T07:54:06.764Z,82.72
2023-01-30T07:58:59.572Z,82.72
2023-01-30T08:03:52.388Z,82.28
2023-01-30T08:08:45.399Z,82.70
2023-01-30T08:13:38.568Z,82.85
2023-01-30T08:18:32.664Z,83.31
2023-01-30T08:23:25.469Z,83.44
2023-01-30T08:28:18.315Z,83.37
2023-01-30T08:33:11.340Z,83.41
2023-01-30T08:38:09.071Z,83.95
2023-01-30T08:43:02.101Z,84.08
2023-01-30T08:47:55.188Z,84.22
2023-01-30T08:52:48.081Z,84.31
2023-01-30T08:57:40.918Z,84.21
2023-01-30T09:02:33.741Z,84.41
2023-01-30T09:07:28.893Z,84.38
2023-01-30T09:12:21.905Z,84.31
2023-01-30T09:17:15.201Z,84.45
2023-01-30T09:22:08.825Z,84.48
2023-01-30T09:27:01.662Z,84.08
2023-01-30T09:31:56.636Z,84.33
2023-01-30T09:36:49.435Z,84.25
2023-01-30T09:42:00.753Z,84.18
2023-01-30T09:47:12.371Z,84.23
2023-01-30T09:52:26.757Z,84.38
2023-01-30T09:57:25.606Z,84.20
2023-01-30T10:02:41.080Z,84.30
2023-01-30T10:07:36.667Z,84.53
2023-01-30T10:12:45.030Z,84.55
2023-01-30T10:18:24.862Z,84.92
2023-01-30T10:23:45.127Z,85.02
2023-01-30T10:28:58.804Z,85.09
2023-01-30T10:34:03.980Z,85.29
2023-01-30T10:39:00.849Z,85.46
2023-01-30T10:44:14.371Z,85.37
2023-01-30T10:49:20.949Z,85.66
2023-01-30T10:54:42.870Z,85.46
2023-01-30T11:00:02.551Z,85.80
2023-01-30T11:05:01.719Z,85.54
2023-01-30T11:09:54.549Z,85.75
2023-01-30T11:15:00.022Z,85.72
2023-01-30T11:19:58.154Z,86.08
2023-01-30T11:25:01.911Z,85.79
2023-01-30T11:30:31.742Z,86.32
2023-01-30T11:35:28.312Z,86.52
2023-01-30T11:40:22.050Z,86.89
2023-01-30T11:45:18.064Z,86.84
2023-01-30T11:50:25.390Z,86.87
2023-01-30T11:55:23.309Z,86.83
2023-01-30T12:00:22.520Z,86.71
2023-01-30T12:05:26.356Z,86.85
2023-01-30T12:10:31.208Z,86.77
2023-01-30T12:15:30.696Z,86.54
2023-01-30T12:20:40.876Z,86.73
2023-01-30T12:25:41.839Z,87.15
2023-01-30T12:30:56.656Z,87.02
2023-01-30T12:36:15.282Z,87.23
2023-01-30T12:41:29.825Z,87.20
2023-01-30T12:46:34.725Z,87.55
2023-01-30T12:51:33.664Z,88.11
2023-01-30T12:56:26.408Z,87.97
2023-01-30T13:01:57.178Z,88.31
2023-01-30T13:07:08.778Z,88.01
2023-01-30T13:12:16.649Z,88.13
2023-01-30T13:17:39.015Z,88.18
2023-01-30T13:22:50.931Z,88.29
2023-01-30T13:27:56.464Z,88.20
2023-01-30T13:32:53.078Z,88.13
2023-01-30T13:37:48.728Z,88.38
2023-01-30T13:43:00.298Z,88.59
2023-01-30T13:48:21.073Z,88.56
2023-01-30T13:53:25.157Z,89.09
2023-01-30T13:58:41.633Z,89.01
2023-01-30T14:03:35.445Z,89.03
2023-01-30T14:08:29.388Z,89.16
2023-01-30T14:13:24.306Z,89.54
2023-01-30T14:18:25.214Z,89.73
2023-01-30T14:23:36.897Z,89.93
2023-01-30T14:28:32.651Z,89.78
2023-01-30T14:33:25.426Z,89.82
2023-01-30T14:38:23.070Z,89.96
2023-01-30T14:43:15.919Z,89.74
2023-01-30T14:48:44.551Z,90.10
2023-01-30T14:53:49.898Z,90.18
2023-01-30T14:58:53.342Z,90.04
2023-01-30T15:03:50.269Z,89.89
2023-01-30T15:08:44.894Z,90.16
2023-01-30T15:13:54.673Z,90.28
2023-01-30T15:19:11.247Z,90.29
2023-01-30T15:24:19.809Z,90.36
2023-01-30T15:29:37.688Z,90.17
2023-01-30T15:34:32.524Z,90.27
2023-01-30T15:39:28.121Z,90.37
2023-01-30T15:44:46.185Z,90.31
2023-01-30T15:49:52.158Z,90.36
2023-01-30T15:54:57.500Z,90.46
2023-01-30T15:59:50.802Z,90.63
2023-01-30T16:04:43.612Z,90.55
2023-01-30T16:09:36.417Z,90.67
2023-01-30T16:14:29.224Z,90.46
2023-01-30T16:19:28.321Z,90.71
2023-01-30T16:24:29.157Z,90.60
2023-01-30T16:29:25.583Z,90.82
2023-01-30T16:34:36.457Z,90.71
2023-01-30T16:39:34.868Z,90.75
2023-01-30T16:44:30.060Z,90.79
2023-01-30T16:49:38.279Z,90.97
2023-01-30T16:54:33.348Z,90.98
2023-01-30T16:59:48.560Z,90.89
2023-01-30T17:04:43.404Z,90.90
2023-01-30T17:09:43.778Z,90.78
2023-01-30T17:14:36.633Z,90.86
2023-01-30T17:19:29.824Z,90.86
2023-01-30T17:24:24.513Z,90.99
2023-01-30T17:29:29.024Z,91.09
2023-01-30T17:34:31.197Z,90.95
2023-01-30T17:39:26.949Z,91.12
2023-01-30T17:44:19.783Z,90.98
2023-01-30T17:49:18.348Z,90.75
2023-01-30T17:54:12.202Z,90.95
2023-01-30T17:59:13.754Z,90.70
2023-01-30T18:04:06.688Z,91.16
2023-01-30T18:08:59.588Z,90.98
2023-01-30T18:13:52.451Z,91.26
2023-01-30T18:18:45.481Z,91.17
2023-01-30T18:23:38.477Z,90.89
2023-01-30T18:28:31.400Z,90.84
2023-01-30T18:33:24.266Z,90.86
2023-01-30T18:38:17.870Z,91.15
2023-01-30T18:43:10.713Z,90.83
2023-01-30T18:48:03.539Z,90.83
2023-01-30T18:52:56.342Z,90.51
2023-01-30T18:57:49.155Z,90.82
2023-01-30T19:02:42.041Z,90.59
2023-01-30T19:07:36.421Z,90.44
2023-01-30T19:12:46.682Z,91.05
2023-01-30T19:17:39.569Z,90.77
2023-01-30T19:22:32.341Z,90.84
2023-01-30T19:27:26.022Z,90.82
2023-01-30T19:32:18.865Z,90.67
2023-01-30T19:37:12.594Z,90.68
2023-01-30T19:42:05.730Z,90.90
2023-01-30T19:46:58.943Z,90.75
2023-01-30T19:51:51.723Z,90.77
2023-01-30T19:56:48.531Z,90.76
2023-01-30T20:01:41.334Z,90.77
2023-01-30T20:06:36.388Z,90.76
2023-01-30T20:11:30.720Z,90.72
2023-01-30T20:16:27.564Z,90.75
2023-01-30T20:21:22.051Z,91.03
2023-01-30T20:26:20.806Z,90.73
2023-01-30T20:31:18.881Z,90.92
2023-01-30T20:36:14.350Z,91.06
2023-01-30T20:41:10.360Z,91.03
2023-01-30T20:46:08.759Z,90.96
2023-01-30T20:51:07.056Z,91.35
2023-01-30T20:56:00.901Z,91.07
2023-01-30T21:00:54.006Z,91.08
2023-01-30T21:05:57.327Z,91.33
2023-01-30T21:10:50.551Z,90.86
2023-01-30T21:15:43.325Z,90.76
2023-01-30T21:20:36.118Z,90.94
2023-01-30T21:25:28.942Z,90.56
2023-01-30T21:30:21.730Z,90.58
2023-01-30T21:35:14.624Z,90.55
2023-01-30T21:40:25.822Z,90.35
2023-01-30T21:45:21.125Z,90.22
2023-01-30T21:50:14.462Z,90.44
2023-01-30T21:55:07.647Z,90.37
2023-01-30T22:00:01.011Z,90.36
2023-01-30T22:04:53.926Z,90.09
2023-01-30T22:09:49.036Z,90.08
2023-01-30T22:14:41.997Z,89.92
2023-01-30T22:19:36.613Z,90.07
2023-01-30T22:24:29.639Z,90.22
2023-01-30T22:29:22.527Z,90.14
2023-01-30T22:34:15.362Z,90.11
2023-01-30T22:39:10.565Z,89.98
2023-01-30T22:44:05.903Z,89.86
2023-01-30T22:49:00.770Z,89.85
2023-01-30T22:53:58.734Z,89.90
2023-01-30T22:58:52.319Z,89.90
2023-01-30T23:03:46.714Z,89.87
2023-01-30T23:08:42.800Z,90.07
2023-01-30T23:13:36.733Z,90.03
2023-01-30T23:18:47.794Z,89.87
2023-01-30T23:23:41.070Z,89.89
2023-01-30T23:28:37.749Z,90.05
2023-01-30T23:33:30.645Z,89.98
2023-01-30T23:38:24.158Z,89.66
2023-01-30T23:43:18.143Z,89.70
2023-01-30T23:48:11.616Z,89.68
2023-01-30T23:53:06.152Z,89.63
2023-01-30T23:57:59.922Z,89.69
